createdAt,value
2022-11-16T00:02:37.989Z,34.17
2022-11-16T00:05:43.664Z,34.53
2022-11-16T00:09:10.826Z,33.45
2022-11-16T00:12:14.721Z,33.83
2022-11-16T00:15:17.439Z,33.88
2022-11-16T00:18:20.669Z,35.07
2022-11-16T00:21:23.909Z,33.78
2022-11-16T00:24:27.243Z,35.70
2022-11-16T00:27:30.130Z,36.55
2022-11-16T00:30:33.158Z,34.72
2022-11-16T00:33:36.140Z,34.27
2022-11-16T00:36:44.533Z,35.35
2022-11-16T00:39:47.083Z,34.70
2022-11-16T00:42:50.069Z,34.53
2022-11-16T00:45:53.831Z,36.28
2022-11-16T00:48:57.445Z,34.83
2022-11-16T00:52:03.396Z,37.55
2022-11-16T00:55:07.415Z,37.38
2022-11-16T00:58:12.198Z,38.03
2022-11-16T01:01:19.193Z,35.92
2022-11-16T01:04:28.387Z,34.10
2022-11-16T01:07:31.815Z,35.05
2022-11-16T01:10:34.993Z,34.97
2022-11-16T01:13:38.863Z,34.92
2022-11-16T01:16:42.833Z,36.50
2022-11-16T01:19:45.836Z,37.53
2022-11-16T01:22:49.548Z,33.85
2022-11-16T01:26:01.829Z,38.83
2022-11-16T01:29:05.335Z,34.85
2022-11-16T01:32:09.165Z,34.45
2022-11-16T01:35:18.720Z,36.80
2022-11-16T01:38:27.137Z,35.88
2022-11-16T01:41:32.619Z,37.20
2022-11-16T01:44:35.940Z,34.00
2022-11-16T01:47:39.633Z,35.70
2022-11-16T01:50:44.103Z,32.80
2022-11-16T01:53:47.738Z,35.95
2022-11-16T01:56:54.368Z,35.88
2022-11-16T02:00:01.378Z,37.08
2022-11-16T02:03:05.746Z,32.08
2022-11-16T02:06:23.333Z,35.30
2022-11-16T02:09:59.008Z,32.90
2022-11-16T02:13:27.729Z,34.60
2022-11-16T02:17:02.024Z,37.75
2022-11-16T02:20:12.316Z,34.03
2022-11-16T02:23:33.847Z,35.30
2022-11-16T02:27:07.575Z,36.83
2022-11-16T02:30:10.995Z,34.60
2022-11-16T02:33:21.314Z,35.42
2022-11-16T02:36:25.574Z,35.63
2022-11-16T02:39:31.805Z,34.50
2022-11-16T02:42:45.532Z,39.13
2022-11-16T02:45:50.889Z,39.03
2022-11-16T02:49:00.169Z,36.08
2022-11-16T02:52:04.498Z,37.55
2022-11-16T02:55:08.974Z,38.90
2022-11-16T02:58:14.556Z,39.65
2022-11-16T03:01:35.375Z,38.95
2022-11-16T03:05:17.291Z,34.83
2022-11-16T03:08:37.389Z,41.85
2022-11-16T03:12:00.363Z,36.83
2022-11-16T03:15:12.137Z,40.45
2022-11-16T03:18:16.735Z,38.13
2022-11-16T03:21:27.296Z,33.20
2022-11-16T03:24:31.532Z,37.72
2022-11-16T03:27:47.479Z,37.83
2022-11-16T03:31:06.028Z,34.92
2022-11-16T03:34:16.339Z,37.55
2022-11-16T03:37:21.118Z,40.47
2022-11-16T03:40:28.056Z,38.00
2022-11-16T03:43:33.077Z,38.20
2022-11-16T03:46:36.578Z,41.47
2022-11-16T03:49:44.662Z,39.42
2022-11-16T03:52:48.939Z,38.78
2022-11-16T03:55:52.206Z,34.97
2022-11-16T03:58:55.382Z,34.73
2022-11-16T04:01:58.366Z,40.20
2022-11-16T04:05:21.083Z,36.90
2022-11-16T04:08:43.939Z,36.33
2022-11-16T04:12:10.198Z,38.22
2022-11-16T04:15:32.000Z,31.33
2022-11-16T04:19:07.303Z,34.08
2022-11-16T04:22:37.415Z,34.45
2022-11-16T04:25:43.729Z,34.95
2022-11-16T04:28:47.994Z,39.28
2022-11-16T04:32:10.030Z,33.03
2022-11-16T04:35:29.553Z,35.40
2022-11-16T04:38:33.832Z,37.00
2022-11-16T04:41:57.029Z,36.00
2022-11-16T04:45:23.929Z,35.53
2022-11-16T04:48:27.526Z,38.30
2022-11-16T04:51:34.110Z,35.35
2022-11-16T04:54:39.367Z,33.78
2022-11-16T04:57:43.940Z,34.83
2022-11-16T05:00:48.648Z,35.63
2022-11-16T05:03:55.094Z,34.67
2022-11-16T05:07:00.508Z,36.80
2022-11-16T05:10:04.490Z,45.12
2022-11-16T05:13:11.089Z,33.17
2022-11-16T05:16:15.236Z,37.20
2022-11-16T05:19:38.986Z,33.43
2022-11-16T05:22:43.121Z,34.55
2022-11-16T05:25:50.000Z,36.65
2022-11-16T05:28:55.663Z,36.17
2022-11-16T05:32:00.153Z,35.35
2022-11-16T05:35:09.211Z,35.00
2022-11-16T05:38:21.241Z,33.78
2022-11-16T05:41:26.138Z,35.75
2022-11-16T05:44:33.180Z,35.38
2022-11-16T05:47:37.636Z,35.15
2022-11-16T05:50:43.155Z,34.33
2022-11-16T05:53:49.358Z,34.10
2022-11-16T05:56:55.223Z,33.17
2022-11-16T06:00:01.082Z,34.05
2022-11-16T06:03:08.022Z,33.92
2022-11-16T06:06:15.303Z,35.50
2022-11-16T06:09:23.022Z,36.85
2022-11-16T06:12:36.012Z,36.50
2022-11-16T06:15:51.111Z,36.28
2022-11-16T06:19:05.924Z,33.03
2022-11-16T06:22:09.762Z,36.27
2022-11-16T06:25:16.174Z,34.85
2022-11-16T06:28:20.057Z,34.60
2022-11-16T06:31:25.110Z,36.42
2022-11-16T06:34:30.671Z,35.38
2022-11-16T06:37:34.406Z,39.00
2022-11-16T06:40:54.060Z,42.53
2022-11-16T06:44:06.833Z,32.72
2022-11-16T06:47:13.550Z,39.90
2022-11-16T06:50:19.386Z,35.95
2022-11-16T06:53:29.025Z,34.83
2022-11-16T06:56:38.387Z,39.47
2022-11-16T06:59:44.035Z,35.25
2022-11-16T07:02:48.395Z,32.17
2022-11-16T07:05:57.031Z,32.83
2022-11-16T07:09:07.117Z,38.03
2022-11-16T07:12:15.075Z,33.78
2022-11-16T07:15:22.968Z,38.17
2022-11-16T07:18:29.499Z,36.05
2022-11-16T07:21:33.350Z,35.00
2022-11-16T07:24:38.176Z,31.47
2022-11-16T07:27:41.259Z,31.55
2022-11-16T07:30:47.301Z,32.85
2022-11-16T07:33:53.268Z,31.55
2022-11-16T07:37:06.410Z,32.15
2022-11-16T07:40:10.262Z,32.47
2022-11-16T07:43:14.503Z,30.83
2022-11-16T07:46:49.469Z,29.20
2022-11-16T07:49:53.422Z,30.62
2022-11-16T07:53:00.220Z,35.60
2022-11-16T07:56:09.613Z,32.83
2022-11-16T07:59:16.974Z,32.60
2022-11-16T08:02:21.115Z,33.13
2022-11-16T08:05:27.973Z,33.55
2022-11-16T08:08:33.657Z,34.20
2022-11-16T08:11:45.484Z,33.20
2022-11-16T08:14:48.746Z,31.62
2022-11-16T08:17:52.299Z,32.42
2022-11-16T08:20:59.854Z,32.63
2022-11-16T08:24:06.276Z,37.65
2022-11-16T08:27:15.436Z,33.93
2022-11-16T08:30:20.028Z,34.15
2022-11-16T08:33:24.459Z,28.15
2022-11-16T08:36:29.034Z,32.67
2022-11-16T08:39:34.680Z,34.38
2022-11-16T08:42:43.430Z,33.13
2022-11-16T08:45:52.631Z,33.40
2022-11-16T08:48:57.910Z,35.45
2022-11-16T08:55:24.093Z,32.83
2022-11-16T08:58:28.183Z,34.40
2022-11-16T09:01:32.968Z,32.80
2022-11-16T09:04:41.370Z,32.78
2022-11-16T09:07:47.519Z,32.78
2022-11-16T09:10:53.263Z,31.60
2022-11-16T09:17:23.068Z,32.40
2022-11-16T09:20:30.141Z,32.22
2022-11-16T09:23:33.857Z,34.80
2022-11-16T09:26:40.370Z,34.05
2022-11-16T09:29:44.019Z,34.73
2022-11-16T09:32:47.987Z,36.58
2022-11-16T09:35:51.032Z,34.15
2022-11-16T09:39:25.934Z,32.35
2022-11-16T09:42:41.069Z,36.15
2022-11-16T09:46:04.015Z,32.07
2022-11-16T09:49:17.547Z,33.42
2022-11-16T09:52:28.238Z,33.15
2022-11-16T09:55:42.418Z,33.53
2022-11-16T09:59:23.239Z,32.45
2022-11-16T10:02:54.010Z,33.17
2022-11-16T10:06:06.231Z,30.40
2022-11-16T10:09:12.730Z,30.05
2022-11-16T10:12:43.541Z,29.92
2022-11-16T10:16:00.507Z,29.52
2022-11-16T10:19:27.110Z,29.37
2022-11-16T10:22:49.924Z,29.63
2022-11-16T10:26:21.881Z,29.95
2022-11-16T10:29:50.957Z,30.27
2022-11-16T10:33:00.724Z,30.33
2022-11-16T10:36:11.035Z,29.40
2022-11-16T10:39:16.991Z,30.10
2022-11-16T10:42:31.935Z,32.10
2022-11-16T10:46:16.029Z,30.05
2022-11-16T10:49:32.778Z,30.33
2022-11-16T10:52:37.119Z,31.83
2022-11-16T10:55:41.970Z,29.58
2022-11-16T10:59:01.353Z,28.50
2022-11-16T11:02:36.796Z,33.35
2022-11-16T11:05:53.986Z,31.60
2022-11-16T11:09:23.477Z,29.20
2022-11-16T11:12:40.282Z,30.00
2022-11-16T11:15:48.933Z,31.25
2022-11-16T11:18:54.884Z,32.80
2022-11-16T11:22:03.089Z,31.92
2022-11-16T11:25:23.063Z,28.50
2022-11-16T11:28:38.626Z,29.27
2022-11-16T11:31:49.762Z,28.17
2022-11-16T11:34:54.471Z,26.98
2022-11-16T11:38:06.309Z,27.23
2022-11-16T11:41:27.707Z,26.33
2022-11-16T11:44:50.588Z,28.12
2022-11-16T11:48:02.615Z,27.58
2022-11-16T11:51:31.799Z,25.98
2022-11-16T11:54:45.986Z,26.60
2022-11-16T11:57:55.733Z,26.57
2022-11-16T12:01:39.092Z,26.65
2022-11-16T12:04:54.315Z,29.35
2022-11-16T12:08:08.114Z,30.75
2022-11-16T12:11:38.889Z,32.63
2022-11-16T12:15:02.816Z,28.53
2022-11-16T12:18:45.748Z,27.40
2022-11-16T12:22:16.377Z,27.27
2022-11-16T12:25:23.988Z,27.65
2022-11-16T12:29:00.217Z,27.98
2022-11-16T12:32:32.289Z,27.47
2022-11-16T12:36:00.983Z,27.20
2022-11-16T12:39:48.149Z,27.65
2022-11-16T12:42:59.132Z,27.77
2022-11-16T12:46:49.004Z,27.37
2022-11-16T12:49:56.155Z,26.07
2022-11-16T12:53:21.878Z,29.50
2022-11-16T12:56:58.046Z,28.83
2022-11-16T13:00:14.076Z,30.00
2022-11-16T13:03:46.937Z,28.73
2022-11-16T13:07:10.375Z,26.90
2022-11-16T13:10:28.136Z,28.17
2022-11-16T13:13:36.682Z,26.95
2022-11-16T13:16:47.627Z,26.83
2022-11-16T13:19:59.136Z,28.40
2022-11-16T13:23:08.153Z,26.80
2022-11-16T13:26:28.485Z,25.45
2022-11-16T13:29:59.904Z,28.95
2022-11-16T13:33:51.072Z,26.55
2022-11-16T13:36:54.801Z,27.40
2022-11-16T13:40:04.938Z,25.63
2022-11-16T13:43:12.029Z,27.30
2022-11-16T13:46:48.795Z,27.52
2022-11-16T13:50:03.034Z,25.98
2022-11-16T13:56:49.778Z,26.07
2022-11-16T14:00:13.975Z,23.92
2022-11-16T14:03:22.968Z,26.70
2022-11-16T14:06:31.451Z,25.67
2022-11-16T14:09:45.323Z,32.70
2022-11-16T14:12:54.149Z,25.23
2022-11-16T14:16:19.690Z,24.63
2022-11-16T14:19:47.663Z,26.52
2022-11-16T14:23:20.257Z,25.40
2022-11-16T14:26:40.262Z,26.27
2022-11-16T14:30:03.153Z,25.70
2022-11-16T14:33:15.085Z,25.52
2022-11-16T14:36:43.060Z,23.02
2022-11-16T14:39:51.948Z,26.15
2022-11-16T14:43:20.220Z,25.50
2022-11-16T14:46:39.147Z,24.70
2022-11-16T14:49:56.099Z,22.25
2022-11-16T14:53:05.917Z,22.52
2022-11-16T14:56:16.953Z,23.30
2022-11-16T14:59:39.882Z,22.80
2022-11-16T15:03:02.164Z,23.80
2022-11-16T15:06:23.289Z,24.80
2022-11-16T15:09:38.241Z,26.92
2022-11-16T15:12:44.162Z,25.83
2022-11-16T15:16:20.939Z,21.27
2022-11-16T15:19:30.821Z,20.70
2022-11-16T15:22:47.023Z,19.52
2022-11-16T15:25:56.557Z,18.87
2022-11-16T15:29:01.541Z,19.58
2022-11-16T15:32:08.263Z,22.58
2022-11-16T15:35:27.126Z,24.30
2022-11-16T15:38:40.933Z,26.27
2022-11-16T15:42:00.453Z,21.60
2022-11-16T15:45:23.947Z,20.90
2022-11-16T15:48:30.244Z,21.95
2022-11-16T15:51:46.877Z,22.10
2022-11-16T15:55:06.861Z,23.27
2022-11-16T15:58:26.670Z,21.95
2022-11-16T16:01:33.998Z,22.05
2022-11-16T16:04:53.972Z,22.13
2022-11-16T16:08:00.974Z,19.50
2022-11-16T16:11:27.937Z,24.83
2022-11-16T16:14:38.387Z,21.05
2022-11-16T16:17:46.973Z,22.05
2022-11-16T16:21:03.150Z,21.10
2022-11-16T16:24:09.677Z,22.20
2022-11-16T16:27:22.313Z,21.92
2022-11-16T16:30:28.469Z,24.67
2022-11-16T16:33:34.427Z,22.45
2022-11-16T16:36:46.952Z,19.48
2022-11-16T16:39:53.888Z,17.40
2022-11-16T16:43:04.431Z,19.12
2022-11-16T16:46:14.318Z,18.80
2022-11-16T16:49:27.119Z,17.40
2022-11-16T16:52:35.132Z,18.08
2022-11-16T16:55:47.647Z,18.40
2022-11-16T16:58:52.933Z,16.67
2022-11-16T17:01:58.148Z,19.25
2022-11-16T17:05:15.956Z,17.23
2022-11-16T17:08:39.952Z,16.87
2022-11-16T17:11:53.153Z,18.73
2022-11-16T17:14:58.456Z,18.23
2022-11-16T17:18:03.905Z,18.98
2022-11-16T17:21:10.278Z,18.27
2022-11-16T17:24:22.632Z,22.08
2022-11-16T17:27:38.114Z,18.27
2022-11-16T17:30:54.859Z,21.25
2022-11-16T17:34:00.919Z,20.62
2022-11-16T17:37:19.914Z,20.65
2022-11-16T17:40:34.163Z,20.37
2022-11-16T17:43:52.000Z,19.40
2022-11-16T17:47:12.942Z,17.92
2022-11-16T17:50:19.160Z,17.77
2022-11-16T17:53:31.367Z,18.65
2022-11-16T17:56:54.973Z,20.12
2022-11-16T18:00:00.359Z,21.50
2022-11-16T18:03:18.158Z,19.10
2022-11-16T18:06:32.910Z,18.27
2022-11-16T18:09:46.068Z,19.10
2022-11-16T18:12:53.975Z,19.65
2022-11-16T18:16:16.129Z,20.20
2022-11-16T18:19:27.891Z,23.08
2022-11-16T18:22:32.930Z,25.73
2022-11-16T18:25:38.309Z,23.67
2022-11-16T18:28:48.649Z,24.15
2022-11-16T18:32:00.028Z,23.10
2022-11-16T18:35:11.988Z,22.67
2022-11-16T18:38:26.946Z,20.48
2022-11-16T18:41:53.284Z,19.92
2022-11-16T18:45:06.977Z,20.90
2022-11-16T18:48:14.973Z,20.20
2022-11-16T18:51:35.977Z,21.17
2022-11-16T18:54:52.888Z,23.95
2022-11-16T18:57:58.501Z,22.27
2022-11-16T19:01:19.046Z,21.62
2022-11-16T19:04:32.163Z,20.40
2022-11-16T19:07:53.834Z,23.00
2022-11-16T19:11:13.009Z,24.10
2022-11-16T19:14:26.491Z,21.62
2022-11-16T19:17:53.420Z,24.67
2022-11-16T19:21:15.148Z,24.40
2022-11-16T19:24:18.972Z,25.85
2022-11-16T19:27:32.862Z,20.92
2022-11-16T19:30:39.662Z,20.12
2022-11-16T19:33:49.998Z,19.42
2022-11-16T19:36:57.961Z,20.03
2022-11-16T19:40:05.453Z,21.67
2022-11-16T19:43:12.032Z,24.17
2022-11-16T19:46:21.543Z,26.17
2022-11-16T19:49:27.528Z,28.45
2022-11-16T19:52:44.968Z,30.80
2022-11-16T19:55:56.503Z,28.52
2022-11-16T19:59:06.032Z,27.40
2022-11-16T20:02:16.808Z,26.50
2022-11-16T20:05:36.842Z,23.62
2022-11-16T20:08:42.573Z,20.13
2022-11-16T20:11:47.418Z,17.30
2022-11-16T20:14:55.175Z,15.75
2022-11-16T20:17:59.317Z,16.15
2022-11-16T20:21:34.234Z,14.80
2022-11-16T20:24:39.367Z,13.53
2022-11-16T20:27:48.955Z,13.93
2022-11-16T20:30:54.294Z,13.88
2022-11-16T20:34:07.978Z,13.23
2022-11-16T20:37:12.593Z,14.05
2022-11-16T20:40:15.836Z,14.27
2022-11-16T20:43:20.332Z,14.23
2022-11-16T20:46:26.568Z,14.00
2022-11-16T20:49:30.955Z,12.45
2022-11-16T20:52:43.060Z,11.70
2022-11-16T20:55:50.216Z,10.30
2022-11-16T20:58:58.923Z,11.25
2022-11-16T21:02:03.359Z,11.10
2022-11-16T21:05:10.027Z,10.65
2022-11-16T21:08:15.969Z,11.60
2022-11-16T21:11:30.147Z,11.70
2022-11-16T21:14:34.360Z,11.85
2022-11-16T21:17:54.167Z,12.63
2022-11-16T21:21:07.153Z,13.18
2022-11-16T21:24:12.931Z,14.40
2022-11-16T21:27:16.557Z,13.67
2022-11-16T21:30:20.147Z,14.32
2022-11-16T21:33:33.227Z,13.75
2022-11-16T21:36:43.562Z,13.82
2022-11-16T21:39:52.652Z,14.82
2022-11-16T21:43:00.180Z,13.87
2022-11-16T21:46:08.125Z,13.48
2022-11-16T21:49:11.097Z,13.93
2022-11-16T21:52:18.014Z,13.62
2022-11-16T21:55:21.714Z,13.60
2022-11-16T21:58:33.873Z,13.07
2022-11-16T22:01:57.890Z,13.35
2022-11-16T22:05:31.892Z,13.32
2022-11-16T22:08:43.851Z,13.52
2022-11-16T22:11:46.950Z,13.80
2022-11-16T22:14:51.863Z,13.40
2022-11-16T22:17:54.961Z,13.62
2022-11-16T22:21:00.864Z,13.90
2022-11-16T22:24:10.868Z,13.75
2022-11-16T22:27:16.194Z,12.85
2022-11-16T22:30:20.019Z,12.50
2022-11-16T22:33:24.977Z,13.23
2022-11-16T22:36:28.490Z,13.45
2022-11-16T22:39:31.614Z,13.75
2022-11-16T22:42:35.188Z,14.87
2022-11-16T22:45:38.197Z,14.40
2022-11-16T22:48:43.401Z,14.45
2022-11-16T22:51:46.156Z,14.70
2022-11-16T22:54:50.731Z,15.18
2022-11-16T22:57:55.625Z,15.38
2022-11-16T23:00:58.687Z,15.17
2022-11-16T23:04:01.577Z,14.60
2022-11-16T23:07:04.782Z,14.95
2022-11-16T23:10:09.172Z,15.43
2022-11-16T23:13:34.102Z,14.60
2022-11-16T23:16:41.148Z,14.57
2022-11-16T23:20:04.130Z,15.75
2022-11-16T23:23:36.182Z,15.80
2022-11-16T23:26:59.862Z,15.15
2022-11-16T23:30:12.064Z,15.82
2022-11-16T23:33:16.073Z,15.60
2022-11-16T23:36:19.130Z,15.10
2022-11-16T23:39:23.189Z,17.02
2022-11-16T23:42:43.962Z,16.17
2022-11-16T23:45:47.245Z,16.12
2022-11-16T23:48:49.780Z,15.77
2022-11-16T23:51:53.697Z,15.27
2022-11-16T23:54:56.521Z,15.85
2022-11-16T23:57:59.824Z,16.15
